首页
METAR-TAF:

METAR-TAF

机场 :

Chautauqua County/Jamestown Airport

Jamestown, 紐約州, 美国

纬度: 42-09N, 经度: 079-16W, 海拔: 525米

当前天气观测

该预报发布于13分钟前的16:04 UTC
风速13节,风向西
温度 -2°C
湿度 93%
气压 1012 hPa
能見度: 2.8公里
多云层高于1000英尺
阴天层高于1700英尺
小雪, 轻雾

METAR: KJHW 151604Z AUTO 27013KT 1 3/4SM -SN BR BKN010 OVC017 M02/M03 A2987 RMK AO2 CIG 007V012 P0000 FZRANO

时间: 11:17 (16:17 UTC)

预报

该预报发布于1小时和14分钟前的15:03 UTC
预报有效从15日的 15点(UTC)到 16日的 12点(UTC)
风速12节,风向西,有时为20节阵风
能見度: 8.0公里
阴天层高于1500英尺
小阵雪
短暂存在
从 15日的 15点(UTC)到 15日的 18点(UTC)
能見度: 2.4公里
多云层高于1200英尺
小雪
从 15日的 1800点(UTC)
风速17节,风向西,有时为26节阵风
能見度: 10公里
阴天层高于1500英尺
从 16日的 0200点(UTC)
风速5节,风向西
能見度: 10公里
阴天层高于2000英尺
从 16日的 0500点(UTC)
风速4节,风向西转西南
能見度: 10公里
多云层高于1200英尺
从 16日的 1100点(UTC)
风速6节,风向南转西南
能見度: 10公里
阴天层高于6000英尺

TAF: KJHW 151503Z 1515/1612 27012G20KT 5SM -SHSN OVC015 TEMPO 1515/1518 1 1/2SM -SN BKN012 FM151800 28017G26KT P6SM OVC015 FM160200 27005KT P6SM OVC020 FM160500 24004KT P6SM BKN012 FM161100 21006KT P6SM OVC060

超过4000个机场的气象观测和天气预报(METAR&TAF报告)。

可查询的气象台以黄色和红色小点在地图上表示。

将鼠标移到小点上方,可查看气象台名称。

然后点击查看天气观测和预报。

如需切换地图:点击带黑十字的绿色按钮放大地图;点击带横线的绿色按钮缩小地图;或者点击绿色箭头查看邻近地区的地图。


METAR-TAF: